Time;durP1;ratioP1;P1;durP2;ratioP2;P2;SDS_P1;SDS_P2;PMS_P1;PMS_P2;Temp;Humidity;BMP_temperature;BMP_pressure;BME280_temperature;BME280_humidity;BME280_pressure;Samples;Min_cycle;Max_cycle;Signal;HPM_P1;HPM_P2
2021/10/24 00:01:12;;;;;;;27.67;14.48;;;;;;;;;;143733;580;46018;-87
2021/10/24 00:03:39;;;;;;;21.52;13.52;;;;;;;;;;143734;585;46011;-88
2021/10/24 00:06:05;;;;;;;20.23;12.85;;;;;;;;;;143732;593;47023;-87
2021/10/24 00:08:32;;;;;;;16.75;13.23;;;;;;;;;;143732;606;46010;-89
2021/10/24 00:10:59;;;;;;;18.58;12.70;;;;;;;;;;143732;597;46021;-88
2021/10/24 00:13:26;;;;;;;24.23;13.98;;;;;;;;;;143733;586;46010;-89
2021/10/24 00:15:53;;;;;;;22.65;15.43;;;;;;;;;;143732;571;46043;-89
2021/10/24 00:18:20;;;;;;;21.23;17.85;;;;;;;;;;143731;603;46010;-88
2021/10/24 00:20:46;;;;;;;20.88;17.00;;;;;;;;;;143734;687;46020;-88
2021/10/24 00:23:14;;;;;;;21.48;18.45;;;;;;;;;;143733;611;46020;-88
2021/10/24 00:25:41;;;;;;;23.08;16.42;;;;;;;;;;143731;566;47022;-89
2021/10/24 00:28:08;;;;;;;23.70;16.08;;;;;;;;;;143732;636;46010;-88
2021/10/24 00:30:35;;;;;;;19.27;14.07;;;;;;;;;;143734;570;46020;-90
2021/10/24 00:33:06;;;;;;;17.58;14.55;;;;;;;;;;143732;599;46020;-87
2021/10/24 00:35:33;;;;;;;18.70;13.90;;;;;;;;;;143731;711;46045;-88
2021/10/24 00:38:01;;;;;;;20.42;13.82;;;;;;;;;;143731;585;46010;-88
2021/10/24 00:40:27;;;;;;;21.12;14.40;;;;;;;;;;143733;585;46020;-89
2021/10/24 00:42:55;;;;;;;14.55;12.30;;;;;;;;;;143734;589;46010;-89
2021/10/24 00:45:26;;;;;;;16.40;12.80;;;;;;;;;;143730;589;47039;-90
2021/10/24 00:47:53;;;;;;;15.02;13.43;;;;;;;;;;143731;585;46010;-88
2021/10/24 00:50:26;;;;;;;17.65;13.35;;;;;;;;;;143733;595;46020;-90
2021/10/24 00:52:53;;;;;;;13.93;12.52;;;;;;;;;;143732;618;46020;-89
2021/10/24 00:55:23;;;;;;;16.10;13.88;;;;;;;;;;143731;564;46013;-86
2021/10/24 00:57:51;;;;;;;14.40;12.88;;;;;;;;;;143727;623;47010;-89
2021/10/24 01:00:18;;;;;;;14.60;12.30;;;;;;;;;;143734;577;46020;-88
2021/10/24 01:02:45;;;;;;;14.95;12.55;;;;;;;;;;143734;610;46011;-89
2021/10/24 01:05:13;;;;;;;14.55;11.95;;;;;;;;;;143731;566;47023;-87
2021/10/24 01:07:43;;;;;;;21.75;15.52;;;;;;;;;;143729;569;46010;-87
2021/10/24 01:10:15;;;;;;;14.05;12.55;;;;;;;;;;143733;592;46021;-89
2021/10/24 01:12:47;;;;;;;18.83;14.48;;;;;;;;;;143733;600;46010;-88
2021/10/24 01:15:14;;;;;;;17.17;14.35;;;;;;;;;;143731;695;47020;-89
2021/10/24 01:17:41;;;;;;;14.48;12.40;;;;;;;;;;143729;581;46026;-87
2021/10/24 01:20:14;;;;;;;14.93;13.25;;;;;;;;;;143730;601;47020;-87
2021/10/24 01:22:40;;;;;;;18.90;13.93;;;;;;;;;;143733;645;46010;-89
2021/10/24 01:25:08;;;;;;;17.50;13.45;;;;;;;;;;143729;565;47021;-88
2021/10/24 01:27:38;;;;;;;13.38;11.98;;;;;;;;;;143731;624;46010;-87
2021/10/24 01:30:06;;;;;;;15.93;12.13;;;;;;;;;;143731;599;46021;-88
2021/10/24 01:32:34;;;;;;;14.80;11.73;;;;;;;;;;143732;616;46010;-87
2021/10/24 01:35:01;;;;;;;14.18;12.68;;;;;;;;;;143733;589;46020;-88
2021/10/24 01:37:41;;;;;;;13.15;11.57;;;;;;;;;;143730;570;47010;-89
2021/10/24 01:40:13;;;;;;;12.75;11.35;;;;;;;;;;143733;593;46021;-88
2021/10/24 01:42:58;;;;;;;13.20;11.52;;;;;;;;;;143733;565;46010;-88
2021/10/24 01:45:28;;;;;;;15.90;11.43;;;;;;;;;;143731;732;47022;-87
2021/10/24 01:47:55;;;;;;;16.98;12.60;;;;;;;;;;143731;681;46010;-87
2021/10/24 01:50:22;;;;;;;14.82;11.45;;;;;;;;;;143731;597;46020;-87
2021/10/24 01:52:49;;;;;;;13.82;10.48;;;;;;;;;;143734;589;46010;-87
2021/10/24 01:55:16;;;;;;;14.27;11.73;;;;;;;;;;143732;571;46040;-87
2021/10/24 01:57:46;;;;;;;15.55;12.50;;;;;;;;;;143730;574;47010;-87
2021/10/24 02:00:14;;;;;;;12.68;10.70;;;;;;;;;;143732;589;47020;-88
2021/10/24 02:02:41;;;;;;;16.67;11.63;;;;;;;;;;143732;578;46010;-87
2021/10/24 02:05:12;;;;;;;11.27;10.27;;;;;;;;;;143735;586;46023;-88
2021/10/24 02:07:43;;;;;;;18.92;11.77;;;;;;;;;;143734;575;45918;-84
2021/10/24 02:10:14;;;;;;;11.23;9.80;;;;;;;;;;143735;572;46021;-84
2021/10/24 02:12:56;;;;;;;13.32;11.93;;;;;;;;;;143737;570;46020;-86
2021/10/24 02:15:33;;;;;;;12.52;11.02;;;;;;;;;;143736;576;46022;-88
2021/10/24 02:18:19;;;;;;;13.25;10.73;;;;;;;;;;143736;586;45918;-88
2021/10/24 02:21:05;;;;;;;13.68;11.50;;;;;;;;;;143738;570;45020;-88
2021/10/24 02:23:55;;;;;;;15.15;11.70;;;;;;;;;;143738;675;45020;-88
2021/10/24 02:26:41;;;;;;;13.85;12.45;;;;;;;;;;143736;579;45884;-88
2021/10/24 02:29:22;;;;;;;15.70;11.75;;;;;;;;;;143734;580;45916;-85
2021/10/24 02:31:50;;;;;;;13.85;11.35;;;;;;;;;;143736;565;46013;-89
2021/10/24 02:34:17;;;;;;;13.77;10.32;;;;;;;;;;143733;617;47020;-88
2021/10/24 02:36:44;;;;;;;11.68;10.48;;;;;;;;;;143730;623;47022;-89
2021/10/24 02:39:11;;;;;;;13.73;11.52;;;;;;;;;;143731;637;46021;-88
2021/10/24 02:41:48;;;;;;;11.02;9.75;;;;;;;;;;143732;579;46021;-88
2021/10/24 02:44:15;;;;;;;15.55;10.82;;;;;;;;;;143732;569;46010;-88
2021/10/24 02:46:42;;;;;;;13.85;11.65;;;;;;;;;;143731;575;46022;-89
2021/10/24 02:49:12;;;;;;;11.90;9.43;;;;;;;;;;143732;635;46020;-90
2021/10/24 02:51:39;;;;;;;13.90;11.50;;;;;;;;;;143732;569;47020;-88
2021/10/24 02:54:14;;;;;;;15.52;12.75;;;;;;;;;;143734;614;46010;-88
2021/10/24 02:56:42;;;;;;;12.70;11.05;;;;;;;;;;143731;579;47023;-89
2021/10/24 02:59:11;;;;;;;14.68;11.68;;;;;;;;;;143731;647;46010;-87
2021/10/24 03:01:38;;;;;;;13.85;12.32;;;;;;;;;;143727;600;49020;-89
2021/10/24 03:04:05;;;;;;;15.40;12.43;;;;;;;;;;143733;666;46010;-88
2021/10/24 03:06:32;;;;;;;14.38;11.98;;;;;;;;;;143731;569;46014;-88
2021/10/24 03:08:59;;;;;;;15.10;12.98;;;;;;;;;;143733;632;46020;-87
2021/10/24 03:11:26;;;;;;;17.40;12.43;;;;;;;;;;143734;758;46021;-89
2021/10/24 03:13:52;;;;;;;16.67;12.32;;;;;;;;;;143735;569;46018;-87
2021/10/24 03:16:19;;;;;;;14.18;12.65;;;;;;;;;;143731;569;47022;-88
2021/10/24 03:18:46;;;;;;;11.82;10.70;;;;;;;;;;143733;592;46010;-87
2021/10/24 03:21:13;;;;;;;17.62;12.75;;;;;;;;;;143732;574;46020;-89
2021/10/24 03:23:40;;;;;;;14.85;12.40;;;;;;;;;;143733;586;46020;-88
2021/10/24 03:26:07;;;;;;;17.87;12.95;;;;;;;;;;143733;592;46043;-86
2021/10/24 03:28:36;;;;;;;15.20;13.10;;;;;;;;;;143734;564;46010;-87
2021/10/24 03:31:04;;;;;;;13.30;11.43;;;;;;;;;;143734;585;46020;-88
2021/10/24 03:33:33;;;;;;;16.73;13.25;;;;;;;;;;143732;636;46010;-86
2021/10/24 03:36:00;;;;;;;19.05;13.85;;;;;;;;;;143732;574;47020;-90
2021/10/24 03:38:27;;;;;;;15.05;12.55;;;;;;;;;;143734;615;46010;-87
2021/10/24 03:40:54;;;;;;;16.65;12.48;;;;;;;;;;143733;572;46021;-88
2021/10/24 03:43:21;;;;;;;14.48;12.37;;;;;;;;;;143732;598;46020;-88
2021/10/24 03:45:48;;;;;;;15.63;12.07;;;;;;;;;;143730;581;47042;-87
2021/10/24 03:48:15;;;;;;;18.37;12.27;;;;;;;;;;143731;594;46010;-88
2021/10/24 03:50:42;;;;;;;17.95;12.63;;;;;;;;;;143733;571;47020;-88
2021/10/24 03:53:09;;;;;;;21.67;14.35;;;;;;;;;;143733;564;46010;-89
2021/10/24 03:55:36;;;;;;;18.98;13.88;;;;;;;;;;143730;647;46935;-87
2021/10/24 03:58:02;;;;;;;22.65;13.23;;;;;;;;;;143730;621;46916;-89
2021/10/24 04:00:29;;;;;;;15.57;13.90;;;;;;;;;;143732;628;47020;-87
2021/10/24 04:03:01;;;;;;;19.98;15.70;;;;;;;;;;143735;566;46010;-88
2021/10/24 04:05:29;;;;;;;16.75;12.85;;;;;;;;;;143731;632;47022;-88
2021/10/24 04:07:56;;;;;;;18.08;13.65;;;;;;;;;;143730;575;46010;-87
2021/10/24 04:10:25;;;;;;;15.10;12.63;;;;;;;;;;143733;648;47021;-88
2021/10/24 04:12:52;;;;;;;16.25;12.18;;;;;;;;;;143735;771;47020;-89
2021/10/24 04:15:19;;;;;;;15.00;11.20;;;;;;;;;;143731;569;47022;-87
2021/10/24 04:17:46;;;;;;;17.33;13.27;;;;;;;;;;143732;651;46010;-89
2021/10/24 04:20:16;;;;;;;17.30;13.55;;;;;;;;;;143732;661;46020;-88
2021/10/24 04:22:43;;;;;;;13.60;12.20;;;;;;;;;;143735;586;46019;-88
2021/10/24 04:25:11;;;;;;;14.40;12.85;;;;;;;;;;143732;574;47023;-89
2021/10/24 04:27:38;;;;;;;17.85;13.57;;;;;;;;;;143731;595;46010;-89
2021/10/24 04:30:09;;;;;;;17.25;13.75;;;;;;;;;;143734;584;47020;-89
2021/10/24 04:32:38;;;;;;;13.80;12.30;;;;;;;;;;143734;590;47011;-89
2021/10/24 04:35:07;;;;;;;21.48;14.23;;;;;;;;;;143732;582;47020;-87
2021/10/24 04:37:33;;;;;;;19.02;13.23;;;;;;;;;;143732;619;46012;-89
2021/10/24 04:40:01;;;;;;;15.50;13.32;;;;;;;;;;143734;744;46021;-88
2021/10/24 04:42:28;;;;;;;17.45;12.70;;;;;;;;;;143734;581;46010;-88
2021/10/24 04:44:56;;;;;;;16.85;12.93;;;;;;;;;;143730;660;47022;-89
2021/10/24 04:47:23;;;;;;;14.90;13.30;;;;;;;;;;143731;615;46917;-88
2021/10/24 04:49:51;;;;;;;15.95;12.80;;;;;;;;;;143734;564;46020;-86
2021/10/24 04:52:18;;;;;;;14.23;12.07;;;;;;;;;;143734;592;46010;-88
2021/10/24 04:54:44;;;;;;;17.08;13.05;;;;;;;;;;143731;569;47021;-87
2021/10/24 04:57:11;;;;;;;18.75;13.50;;;;;;;;;;143731;589;46916;-89
2021/10/24 04:59:38;;;;;;;30.65;13.75;;;;;;;;;;143732;582;47020;-87
2021/10/24 05:02:05;;;;;;;16.67;12.95;;;;;;;;;;143733;583;46025;-90
2021/10/24 05:04:32;;;;;;;16.27;12.65;;;;;;;;;;143733;577;46050;-87
2021/10/24 05:06:58;;;;;;;21.23;14.00;;;;;;;;;;143731;576;46917;-87
2021/10/24 05:09:25;;;;;;;16.30;12.48;;;;;;;;;;143731;609;47021;-87
2021/10/24 05:11:52;;;;;;;21.90;12.95;;;;;;;;;;143733;601;46020;-86
2021/10/24 05:14:19;;;;;;;15.80;12.85;;;;;;;;;;143733;588;47022;-87
2021/10/24 05:16:46;;;;;;;15.50;13.60;;;;;;;;;;143732;574;46020;-88
2021/10/24 05:19:13;;;;;;;19.00;13.55;;;;;;;;;;143735;657;46012;-87
2021/10/24 05:21:39;;;;;;;29.20;15.02;;;;;;;;;;143735;605;46010;-88
2021/10/24 05:24:07;;;;;;;18.92;14.45;;;;;;;;;;143732;570;47020;-88
2021/10/24 05:26:34;;;;;;;17.20;15.40;;;;;;;;;;143730;577;46918;-88
2021/10/24 05:29:01;;;;;;;23.92;16.35;;;;;;;;;;143735;582;46018;-87
2021/10/24 05:31:27;;;;;;;16.50;14.25;;;;;;;;;;143734;661;46021;-88
2021/10/24 05:33:54;;;;;;;25.95;18.85;;;;;;;;;;143732;569;47023;-86
2021/10/24 05:36:21;;;;;;;21.42;16.77;;;;;;;;;;143733;563;46010;-86
2021/10/24 05:38:50;;;;;;;30.45;17.35;;;;;;;;;;143732;564;46021;-88
2021/10/24 05:41:21;;;;;;;21.00;17.08;;;;;;;;;;143735;595;46020;-87
2021/10/24 05:43:49;;;;;;;27.65;16.90;;;;;;;;;;143732;624;48020;-87
2021/10/24 05:46:19;;;;;;;22.52;16.87;;;;;;;;;;143731;591;46010;-88
2021/10/24 05:48:46;;;;;;;26.17;16.77;;;;;;;;;;143735;564;46020;-87
2021/10/24 05:51:13;;;;;;;25.80;15.95;;;;;;;;;;143736;602;46010;-89
2021/10/24 05:53:42;;;;;;;24.58;16.45;;;;;;;;;;143731;591;47022;-87
2021/10/24 05:56:09;;;;;;;21.80;16.62;;;;;;;;;;143731;618;47010;-87
2021/10/24 05:58:36;;;;;;;23.48;16.60;;;;;;;;;;143731;563;47020;-87
2021/10/24 06:01:03;;;;;;;31.52;20.25;;;;;;;;;;143735;570;46020;-88
2021/10/24 06:03:31;;;;;;;25.95;17.48;;;;;;;;;;143732;597;47023;-88
2021/10/24 06:06:02;;;;;;;27.70;19.67;;;;;;;;;;143732;569;46010;-88
2021/10/24 06:08:28;;;;;;;29.92;19.77;;;;;;;;;;143734;573;47020;-89
2021/10/24 06:11:03;;;;;;;35.10;21.87;;;;;;;;;;143732;594;47021;-87
2021/10/24 06:13:29;;;;;;;28.92;21.20;;;;;;;;;;143733;575;47020;-86
2021/10/24 06:15:57;;;;;;;25.92;19.92;;;;;;;;;;143733;707;46011;-87
2021/10/24 06:18:23;;;;;;;31.20;19.73;;;;;;;;;;143735;576;46022;-88
2021/10/24 06:20:50;;;;;;;20.90;18.75;;;;;;;;;;143736;579;46012;-87
2021/10/24 06:23:18;;;;;;;25.98;19.12;;;;;;;;;;143730;746;47021;-87
2021/10/24 06:25:44;;;;;;;29.67;20.83;;;;;;;;;;143734;668;46012;-86
2021/10/24 06:28:15;;;;;;;31.12;20.42;;;;;;;;;;143735;601;47020;-86
2021/10/24 06:30:42;;;;;;;28.10;21.98;;;;;;;;;;143734;587;46011;-87
2021/10/24 06:33:09;;;;;;;29.25;21.48;;;;;;;;;;143733;599;47023;-88
2021/10/24 06:35:37;;;;;;;32.42;21.48;;;;;;;;;;143731;574;46020;-87
2021/10/24 06:38:05;;;;;;;28.77;19.25;;;;;;;;;;143733;585;47021;-87
2021/10/24 06:40:32;;;;;;;32.38;19.50;;;;;;;;;;143735;603;46018;-87
2021/10/24 06:42:59;;;;;;;27.48;19.73;;;;;;;;;;143733;696;47022;-87
2021/10/24 06:45:26;;;;;;;26.67;17.33;;;;;;;;;;143732;664;46021;-88
2021/10/24 06:47:53;;;;;;;29.35;18.40;;;;;;;;;;143734;611;46020;-87
2021/10/24 06:50:20;;;;;;;25.40;18.08;;;;;;;;;;143735;564;47020;-87
2021/10/24 06:52:48;;;;;;;22.33;17.17;;;;;;;;;;143733;567;47022;-88
2021/10/24 06:55:21;;;;;;;29.85;20.02;;;;;;;;;;143732;657;47010;-91
2021/10/24 06:57:52;;;;;;;44.17;24.73;;;;;;;;;;143732;605;47020;-87
2021/10/24 07:00:21;;;;;;;51.22;32.05;;;;;;;;;;143735;565;46010;-89
2021/10/24 07:02:48;;;;;;;48.80;27.42;;;;;;;;;;143734;569;46023;-87
2021/10/24 07:05:16;;;;;;;32.17;21.20;;;;;;;;;;143733;662;46010;-87
2021/10/24 07:07:46;;;;;;;30.17;21.35;;;;;;;;;;143736;566;47021;-88
2021/10/24 07:10:14;;;;;;;25.00;19.10;;;;;;;;;;143734;600;46020;-87
2021/10/24 07:12:41;;;;;;;25.58;18.05;;;;;;;;;;143733;647;46022;-88
2021/10/24 07:15:09;;;;;;;23.52;17.65;;;;;;;;;;143734;564;46011;-88
2021/10/24 07:17:36;;;;;;;30.02;20.75;;;;;;;;;;143736;675;46021;-87
2021/10/24 07:20:07;;;;;;;26.73;21.48;;;;;;;;;;143735;613;46010;-86
2021/10/24 07:22:38;;;;;;;30.10;21.67;;;;;;;;;;143733;569;46913;-86
2021/10/24 07:25:05;;;;;;;28.40;22.05;;;;;;;;;;143733;572;46010;-85
2021/10/24 07:27:31;;;;;;;50.67;33.95;;;;;;;;;;143734;586;46020;-87
2021/10/24 07:29:58;;;;;;;39.45;31.08;;;;;;;;;;143734;591;47010;-88
2021/10/24 07:32:25;;;;;;;42.00;34.88;;;;;;;;;;143731;613;46023;-90
2021/10/24 07:34:52;;;;;;;38.50;32.47;;;;;;;;;;143731;602;46916;-86
2021/10/24 07:37:19;;;;;;;41.33;36.20;;;;;;;;;;143733;588;47021;-86
2021/10/24 07:39:46;;;;;;;44.30;36.40;;;;;;;;;;143735;763;46010;-86
2021/10/24 07:42:13;;;;;;;43.55;35.33;;;;;;;;;;143734;604;47022;-87
2021/10/24 07:44:40;;;;;;;44.28;36.63;;;;;;;;;;143734;590;46011;-87
2021/10/24 07:47:06;;;;;;;43.22;34.40;;;;;;;;;;143732;587;47029;-87
2021/10/24 07:49:33;;;;;;;41.03;31.73;;;;;;;;;;143736;689;47020;-87
2021/10/24 07:52:00;;;;;;;43.45;30.80;;;;;;;;;;143731;676;47021;-87
2021/10/24 07:54:28;;;;;;;34.85;29.00;;;;;;;;;;143733;571;46010;-84
2021/10/24 07:56:55;;;;;;;35.35;28.60;;;;;;;;;;143732;632;48020;-84
2021/10/24 07:59:21;;;;;;;34.25;25.40;;;;;;;;;;143737;622;46010;-84
2021/10/24 08:01:48;;;;;;;34.30;23.62;;;;;;;;;;143729;580;47023;-86
2021/10/24 08:04:14;;;;;;;32.03;21.17;;;;;;;;;;143733;640;46010;-84
2021/10/24 08:06:41;;;;;;;29.67;20.42;;;;;;;;;;143733;572;47020;-84
2021/10/24 08:09:10;;;;;;;27.58;19.45;;;;;;;;;;143735;590;46010;-84
2021/10/24 08:11:39;;;;;;;24.30;18.48;;;;;;;;;;143734;581;46022;-84
2021/10/24 08:14:07;;;;;;;22.85;17.67;;;;;;;;;;143734;597;46020;-84
2021/10/24 08:16:36;;;;;;;27.67;16.00;;;;;;;;;;143733;601;46021;-84
2021/10/24 08:19:06;;;;;;;42.38;20.25;;;;;;;;;;143737;594;46010;-84
2021/10/24 08:21:32;;;;;;;17.50;15.13;;;;;;;;;;143732;594;47021;-84
2021/10/24 08:23:59;;;;;;;17.37;14.13;;;;;;;;;;143732;660;46010;-86
2021/10/24 08:26:27;;;;;;;19.40;15.18;;;;;;;;;;143732;589;46020;-84
2021/10/24 08:28:54;;;;;;;25.00;13.23;;;;;;;;;;143735;579;46019;-86
2021/10/24 08:31:25;;;;;;;18.02;13.38;;;;;;;;;;143734;593;46052;-83
2021/10/24 08:33:57;;;;;;;18.90;13.13;;;;;;;;;;143732;582;46010;-84
2021/10/24 08:36:47;;;;;;;18.27;11.93;;;;;;;;;;143734;641;46020;-86
2021/10/24 08:39:14;;;;;;;13.57;10.93;;;;;;;;;;143735;585;47020;-86
2021/10/24 08:41:44;;;;;;;12.32;10.50;;;;;;;;;;143733;588;47020;-84
2021/10/24 08:44:11;;;;;;;14.73;11.15;;;;;;;;;;143733;640;46011;-84
2021/10/24 08:46:39;;;;;;;13.95;11.15;;;;;;;;;;143735;601;47021;-86
2021/10/24 08:49:09;;;;;;;18.20;12.23;;;;;;;;;;143735;571;46020;-84
2021/10/24 08:51:37;;;;;;;13.43;11.15;;;;;;;;;;143732;596;46021;-84
2021/10/24 08:54:14;;;;;;;18.77;11.75;;;;;;;;;;143731;600;46917;-85
2021/10/24 08:56:44;;;;;;;12.10;10.27;;;;;;;;;;143733;610;46020;-86
2021/10/24 08:59:11;;;;;;;15.30;11.45;;;;;;;;;;143735;581;46019;-85
2021/10/24 09:01:51;;;;;;;17.67;10.70;;;;;;;;;;143733;577;46023;-87
2021/10/24 09:04:50;;;;;;;13.40;9.80;;;;;;;;;;143731;637;47010;-84
2021/10/24 09:07:22;;;;;;;16.58;11.20;;;;;;;;;;143733;581;47021;-84
2021/10/24 09:09:51;;;;;;;13.60;11.52;;;;;;;;;;143737;659;46020;-84
2021/10/24 09:12:19;;;;;;;16.35;10.98;;;;;;;;;;143738;566;46020;-84
2021/10/24 09:14:54;;;;;;;12.90;11.32;;;;;;;;;;143734;565;46021;-84
2021/10/24 09:17:30;;;;;;;17.83;11.02;;;;;;;;;;143735;589;46012;-84
2021/10/24 09:20:05;;;;;;;14.05;10.88;;;;;;;;;;143738;628;46010;-84
2021/10/24 09:22:35;;;;;;;11.75;10.63;;;;;;;;;;143733;593;46022;-85
2021/10/24 09:25:13;;;;;;;12.20;10.68;;;;;;;;;;143733;589;46010;-85
2021/10/24 09:28:03;;;;;;;14.45;9.75;;;;;;;;;;143732;569;47020;-83
2021/10/24 09:30:34;;;;;;;11.48;10.27;;;;;;;;;;143734;576;46021;-83
2021/10/24 09:33:12;;;;;;;12.27;10.95;;;;;;;;;;143731;721;47024;-82
2021/10/24 09:35:44;;;;;;;21.87;12.52;;;;;;;;;;143735;594;46013;-84
2021/10/24 09:38:23;;;;;;;18.92;11.77;;;;;;;;;;143735;628;46012;-83
2021/10/24 09:40:55;;;;;;;14.75;11.77;;;;;;;;;;143733;614;46020;-83
2021/10/24 09:43:27;;;;;;;16.25;12.13;;;;;;;;;;143730;586;46022;-86
2021/10/24 09:46:14;;;;;;;21.85;13.40;;;;;;;;;;143733;608;46020;-84
2021/10/24 09:48:52;;;;;;;13.98;11.20;;;;;;;;;;143735;575;46020;-85
2021/10/24 09:51:20;;;;;;;15.82;11.77;;;;;;;;;;143736;569;47020;-86
2021/10/24 09:53:50;;;;;;;12.10;10.65;;;;;;;;;;143733;599;46020;-86
2021/10/24 09:56:19;;;;;;;15.20;11.70;;;;;;;;;;143735;618;46010;-85
2021/10/24 09:58:53;;;;;;;16.90;11.73;;;;;;;;;;143735;571;46019;-86
2021/10/24 10:01:25;;;;;;;15.35;11.55;;;;;;;;;;143736;619;46020;-85
2021/10/24 10:03:52;;;;;;;18.87;11.15;;;;;;;;;;143735;576;46022;-86
2021/10/24 10:06:24;;;;;;;15.13;11.38;;;;;;;;;;143734;567;46021;-85
2021/10/24 10:08:51;;;;;;;13.18;11.80;;;;;;;;;;143734;589;46021;-85
2021/10/24 10:11:30;;;;;;;16.83;12.43;;;;;;;;;;143736;818;46020;-86
2021/10/24 10:14:25;;;;;;;15.05;12.65;;;;;;;;;;143733;674;46022;-86
2021/10/24 10:17:04;;;;;;;16.20;13.30;;;;;;;;;;143731;619;46010;-82
2021/10/24 10:19:37;;;;;;;17.98;12.68;;;;;;;;;;143735;665;46020;-86
2021/10/24 10:22:29;;;;;;;19.00;12.23;;;;;;;;;;143738;604;46021;-86
2021/10/24 10:25:05;;;;;;;9.68;8.70;;;;;;;;;;143731;569;47020;-83
2021/10/24 10:27:44;;;;;;;8.15;4.22;;;;;;;;;;143732;646;46010;-81
2021/10/24 10:30:30;;;;;;;8.27;3.50;;;;;;;;;;143736;635;45034;-85
2021/10/24 10:32:57;;;;;;;7.57;4.03;;;;;;;;;;143737;647;46010;-85
2021/10/24 10:35:28;;;;;;;13.85;4.12;;;;;;;;;;143733;580;46020;-85
2021/10/24 10:38:01;;;;;;;8.25;3.53;;;;;;;;;;143733;569;46012;-82
2021/10/24 10:40:38;;;;;;;14.38;4.25;;;;;;;;;;143735;589;46012;-86
2021/10/24 10:43:33;;;;;;;12.60;3.58;;;;;;;;;;143733;720;47020;-87
2021/10/24 10:46:04;;;;;;;6.30;4.78;;;;;;;;;;143734;627;46020;-87
2021/10/24 10:48:36;;;;;;;5.35;3.72;;;;;;;;;;143731;661;46020;-85
2021/10/24 10:51:16;;;;;;;6.82;4.78;;;;;;;;;;143732;745;46019;-85
2021/10/24 10:54:07;;;;;;;12.77;6.97;;;;;;;;;;143736;612;46018;-86
2021/10/24 10:56:44;;;;;;;11.55;6.25;;;;;;;;;;143730;692;47024;-86
2021/10/24 10:59:28;;;;;;;9.77;7.32;;;;;;;;;;143730;713;46011;-84
2021/10/24 11:01:55;;;;;;;6.07;2.60;;;;;;;;;;143731;599;46012;-84
2021/10/24 11:04:22;;;;;;;6.18;4.10;;;;;;;;;;143736;565;46010;-83
2021/10/24 11:06:56;;;;;;;9.05;4.53;;;;;;;;;;143731;577;47021;-84
2021/10/24 11:09:43;;;;;;;7.47;5.95;;;;;;;;;;143731;570;47010;-84
2021/10/24 11:12:30;;;;;;;7.00;4.80;;;;;;;;;;143731;569;48028;-84
2021/10/24 11:15:11;;;;;;;5.35;4.47;;;;;;;;;;143731;637;47010;-84
2021/10/24 11:17:59;;;;;;;9.80;6.43;;;;;;;;;;143730;654;47020;-85
2021/10/24 11:20:39;;;;;;;12.10;9.07;;;;;;;;;;143731;635;47021;-86
2021/10/24 11:23:10;;;;;;;12.57;11.15;;;;;;;;;;143733;694;46020;-84
2021/10/24 11:25:38;;;;;;;16.85;10.98;;;;;;;;;;143736;570;46020;-84
2021/10/24 11:28:10;;;;;;;15.95;11.50;;;;;;;;;;143731;603;47022;-84
2021/10/24 11:30:39;;;;;;;13.30;11.90;;;;;;;;;;143729;592;46010;-84
2021/10/24 11:33:28;;;;;;;;;;;;;;;;;;;;;
2021/10/24 11:35:59;;;;;;;17.23;12.43;;;;;;;;;;143732;601;47019;-85
2021/10/24 11:38:27;;;;;;;16.17;12.63;;;;;;;;;;143732;604;46020;-84
2021/10/24 11:40:54;;;;;;;15.98;11.85;;;;;;;;;;143729;632;46917;-84
2021/10/24 11:43:25;;;;;;;14.82;12.35;;;;;;;;;;143732;645;46021;-84
2021/10/24 11:45:54;;;;;;;14.48;12.75;;;;;;;;;;143734;677;46018;-84
2021/10/24 11:48:38;;;;;;;15.75;11.20;;;;;;;;;;143730;649;47022;-86
2021/10/24 11:51:12;;;;;;;13.57;11.05;;;;;;;;;;143731;600;46010;-84
2021/10/24 11:53:44;;;;;;;15.52;10.82;;;;;;;;;;143733;637;46051;-85
2021/10/24 11:57:03;;;;;;;12.47;10.47;;;;;;;;;;143734;569;46018;-85
2021/10/24 12:02:10;;;;;;;18.08;11.32;;;;;;;;;;143729;639;47020;-83
2021/10/24 12:04:36;;;;;;;13.52;11.12;;;;;;;;;;143730;580;47020;-85
2021/10/24 12:07:08;;;;;;;13.57;10.73;;;;;;;;;;143734;633;46010;-85
2021/10/24 12:09:50;;;;;;;11.68;8.55;;;;;;;;;;143733;590;46012;-86
2021/10/24 12:12:28;;;;;;;14.73;9.45;;;;;;;;;;143732;616;46917;-84
2021/10/24 12:15:15;;;;;;;9.18;7.85;;;;;;;;;;143735;579;46021;-84
2021/10/24 12:17:43;;;;;;;13.82;6.65;;;;;;;;;;143734;583;47020;-86
2021/10/24 12:20:35;;;;;;;7.53;6.10;;;;;;;;;;143729;610;47022;-85
2021/10/24 12:23:04;;;;;;;9.05;6.47;;;;;;;;;;143731;599;47020;-85
2021/10/24 12:25:43;;;;;;;18.60;7.40;;;;;;;;;;143730;569;47020;-85
2021/10/24 12:28:13;;;;;;;9.25;6.62;;;;;;;;;;143734;564;46011;-84
2021/10/24 12:30:47;;;;;;;11.10;6.82;;;;;;;;;;143730;615;46023;-84
2021/10/24 12:33:25;;;;;;;10.48;6.25;;;;;;;;;;143732;604;46048;-84
2021/10/24 12:35:54;;;;;;;12.32;7.10;;;;;;;;;;143731;583;46021;-84
2021/10/24 12:38:41;;;;;;;14.13;6.82;;;;;;;;;;143734;639;46010;-85
2021/10/24 12:41:08;;;;;;;10.23;6.78;;;;;;;;;;143731;658;46020;-85
2021/10/24 12:43:50;;;;;;;13.15;7.78;;;;;;;;;;143734;585;46021;-85
2021/10/24 12:46:34;;;;;;;10.45;7.72;;;;;;;;;;143730;581;47020;-85
2021/10/24 12:49:29;;;;;;;8.70;6.97;;;;;;;;;;143730;640;47010;-86
2021/10/24 12:52:15;;;;;;;14.98;7.53;;;;;;;;;;143731;578;47021;-85
2021/10/24 12:54:47;;;;;;;9.90;7.18;;;;;;;;;;143730;578;46010;-84
2021/10/24 12:57:14;;;;;;;12.93;6.07;;;;;;;;;;143736;576;46020;-85
2021/10/24 12:59:44;;;;;;;17.87;7.80;;;;;;;;;;143734;573;46020;-86
2021/10/24 13:02:15;;;;;;;11.70;6.28;;;;;;;;;;143732;642;46022;-86
2021/10/24 13:04:43;;;;;;;11.50;7.80;;;;;;;;;;143732;586;46020;-86
2021/10/24 13:07:12;;;;;;;20.42;11.35;;;;;;;;;;143734;593;46021;-85
2021/10/24 13:09:39;;;;;;;14.25;7.40;;;;;;;;;;143734;579;47018;-86
2021/10/24 13:12:06;;;;;;;12.73;7.80;;;;;;;;;;143733;556;46050;-86
2021/10/24 13:14:33;;;;;;;14.05;7.05;;;;;;;;;;143730;618;46010;-85
2021/10/24 13:17:00;;;;;;;16.23;6.68;;;;;;;;;;143730;595;47020;-85
2021/10/24 13:19:27;;;;;;;12.75;7.60;;;;;;;;;;143732;627;46020;-85
2021/10/24 13:24:31;;;;;;;11.30;8.18;;;;;;;;;;143733;606;47020;-87
2021/10/24 13:26:59;;;;;;;10.13;7.07;;;;;;;;;;143734;602;46020;-86
2021/10/24 13:29:27;;;;;;;15.07;8.25;;;;;;;;;;143736;564;46010;-85
2021/10/24 13:32:02;;;;;;;15.20;9.57;;;;;;;;;;143730;595;47022;-85
2021/10/24 13:34:29;;;;;;;20.15;8.35;;;;;;;;;;143731;596;46918;-87
2021/10/24 13:36:56;;;;;;;7.47;5.00;;;;;;;;;;143731;576;46021;-87
2021/10/24 13:39:28;;;;;;;6.65;4.65;;;;;;;;;;143733;571;46010;-87
2021/10/24 13:41:58;;;;;;;9.90;5.43;;;;;;;;;;143731;581;47022;-86
2021/10/24 13:44:26;;;;;;;5.47;4.47;;;;;;;;;;143732;608;46034;-87
2021/10/24 13:46:56;;;;;;;5.35;3.35;;;;;;;;;;143732;618;46020;-86
2021/10/24 13:49:23;;;;;;;9.45;4.07;;;;;;;;;;143733;564;46020;-85
2021/10/24 13:51:50;;;;;;;5.53;3.20;;;;;;;;;;143730;564;47021;-85
2021/10/24 13:54:17;;;;;;;5.07;3.08;;;;;;;;;;143730;565;46918;-86
2021/10/24 13:56:44;;;;;;;3.80;2.53;;;;;;;;;;143731;654;47020;-85
2021/10/24 13:59:11;;;;;;;4.57;3.78;;;;;;;;;;143734;642;46010;-84
2021/10/24 14:01:38;;;;;;;9.27;4.22;;;;;;;;;;143731;582;47022;-86
2021/10/24 14:04:08;;;;;;;10.38;3.58;;;;;;;;;;143731;604;46010;-85
2021/10/24 14:06:38;;;;;;;8.07;4.60;;;;;;;;;;143732;602;46021;-85
2021/10/24 14:09:04;;;;;;;7.45;4.22;;;;;;;;;;143733;566;46010;-85
2021/10/24 14:11:31;;;;;;;7.75;5.60;;;;;;;;;;143732;573;47020;-86
2021/10/24 14:13:59;;;;;;;9.73;5.15;;;;;;;;;;143730;610;46021;-86
2021/10/24 14:16:26;;;;;;;7.07;5.03;;;;;;;;;;143731;577;46012;-84
2021/10/24 14:18:53;;;;;;;8.73;5.87;;;;;;;;;;143732;654;46020;-85
2021/10/24 14:21:20;;;;;;;8.52;6.37;;;;;;;;;;143729;615;47021;-85
2021/10/24 14:23:47;;;;;;;8.15;6.45;;;;;;;;;;143731;603;46010;-86
2021/10/24 14:26:14;;;;;;;21.60;18.23;;;;;;;;;;143733;675;46020;-85
2021/10/24 14:28:40;;;;;;;16.00;11.20;;;;;;;;;;143734;584;46010;-86
2021/10/24 14:31:09;;;;;;;12.13;9.38;;;;;;;;;;143732;608;47022;-84
2021/10/24 14:33:39;;;;;;;11.75;8.80;;;;;;;;;;143730;578;46021;-87
2021/10/24 14:36:06;;;;;;;13.20;8.75;;;;;;;;;;143732;652;46021;-86
2021/10/24 14:38:33;;;;;;;24.52;19.75;;;;;;;;;;143732;569;46010;-85
2021/10/24 14:41:00;;;;;;;23.70;21.02;;;;;;;;;;143731;710;47020;-86
2021/10/24 14:43:27;;;;;;;12.98;11.63;;;;;;;;;;143731;594;46010;-86
2021/10/24 14:45:54;;;;;;;9.45;5.82;;;;;;;;;;143734;590;46020;-87
2021/10/24 14:48:22;;;;;;;10.15;5.40;;;;;;;;;;143734;563;46028;-86